Главная страница
METAR-TAF:

METAR-TAF

Аэропорты :

Алис-Спрингс, Австралия

широта: 23-48S, долгота: 133-53E, высота над уровнем моря: 545 м

Текущие метеонаблюдения

Эта сводка был подготовлена 39 минут назад, в 02:30 UTC
Ветер 6 Узел от восточно-юго-восточный, изменяющийся между восточный и юго-юго-восточный
Температура 24°C
Влажность 13%
Давление 1018 hPa
Видимость 10 км и более

METAR: YBAS 170230Z AUTO 11006KT 080V150 9999 // NCD 24/M06 Q1018 RF00.0/000.0 PRESENT WEATHER SENSOR US

Время: 12:39 (03:09 UTC)

Прогноз

Эта сводка был подготовлена 4 часа и 2 минут назад, в 23:07 UTC
Прогноз действительный с 17-го 00 UTC до 17-го 24 UTC
Ветер 6 Узел от северный
Видимость 10 км и более
Нет облачности ниже 1500 м, и нет кучево-дождевой облачности

TAF: YBAS 162307Z 1700/1724 36006KT CAVOK

Метеонаблюдения и прогнозы для более 4000 аэропортов (сводки METAR и TAF).

Имеющиеся станции представлены на карте желтыми и красными точками.

Чтобы увидеть название станции, наведите на нее мышь.

Затем щелкните, чтобы увидеть метеонаблюдения и метеопрогнозы.

Управление картой: чтобы увеличить масштаб, щелкните зеленые кнопки с черным крестиком; чтобы уменьшить масштаб, щелкните зеленую кнопку с тире; для просмотра соседних карт щелкайте зеленые стрелки.


METAR-TAF: